Terminal Aerodrome Forecast
Issued by NWS Sioux Falls, SD

Home | Current Version | Previous Version | Text Only | Print | Product List | Glossary Off
Versions: 1 2 3 4 5 6 7 8 9 10 11 12 13 14 15 16 17 18 19 20 21

000
FTUS43 KFSD 041120
TAFFSD
TAF
KFSD 041120Z 0412/0512 02008KT P6SM SCT200
     FM041500 05013G18KT P6SM BKN200
     FM041900 07012KT P6SM BKN150
     FM050200 08011KT P6SM SCT060 BKN200
     FM050900 09010KT P6SM OVC090
      TEMPO 0509/0512 4SM -SHRA OVC050=

USA.gov is the U.S. government's official web portal to all federal, state and local government web resources and services.